Airfield :
LOGIN :

Register | Disclaimer

   EN    FR    IT 

 










Legend :    VFR   Marginal VFR   IFR   Intensive IFR   Very Intensive IFR
Visi :
Ceiling :
>= 8 km
>= 3000ft
5 to 8 km
1000 to 3000 ft
1500m to 5 km
500 to 1000 ft
800 to 1500m
200 to 500 ft
< 800m
< 200 ft
Symbols :   Thunderstorms  Fog  Heavy snow  Heavy precipitations  Wind > 20 kt
SIGMETs :     Misc.  Thunderstorms  Icing  Turbulence  Mountain Waves  Volcanic Ashes






- Airport Elevation : 75 ft
- IATA code : MRH


EGYM - RAF Marham

CURRENT METAR :
  • 290550Z AUTO 34012KT 9000 -RA FEW011/// BKN029/// 09/08 Q1020

EXPIRED METARs :
  • 290450Z AUTO 33008KT 9999 -RA FEW014/// BKN032/// 08/07 Q1020
  • 290350Z AUTO 30009KT 9999 FEW015/// BKN033/// BKN042/// 07/06 Q1020
  • 290250Z AUTO 30008KT 9999 FEW028/// BKN040/// 09/07 Q1021

Expired Forecast.



MET'MAP, your aeronautical weather chart ! - Copyright ORBIFLY December 2007 - Disclaimer

ORBIFLY MET'MAP TEAM :

Programming & Development : Alexandra Zaïnal
Original concept : Baudouin d'Aumeries
Technical & hardware support : Manuel Goepfert
Assistance : Marc-Olivier Méhu

Contact : metmap@orbifly.com




SOURCES & CREDITS :

   NOAA